createdAt,value
2022-08-27T00:00:26.766Z,8.00
2022-08-27T00:01:28.249Z,13.40
2022-08-27T00:02:26.827Z,13.50
2022-08-27T00:03:26.737Z,15.90
2022-08-27T00:04:26.793Z,16.10
2022-08-27T00:05:27.387Z,14.60
2022-08-27T00:06:26.726Z,14.00
2022-08-27T00:07:26.742Z,16.60
2022-08-27T00:08:26.678Z,15.50
2022-08-27T00:09:27.333Z,12.40
2022-08-27T00:10:26.659Z,11.80
2022-08-27T00:11:26.843Z,12.30
2022-08-27T00:12:36.620Z,14.10
2022-08-27T00:13:26.620Z,16.30
2022-08-27T00:14:26.613Z,14.90
2022-08-27T00:15:27.389Z,7.70
2022-08-27T00:16:28.596Z,7.70
2022-08-27T00:17:26.578Z,17.90
2022-08-27T00:18:26.568Z,18.60
2022-08-27T00:19:26.558Z,17.80
2022-08-27T00:20:26.566Z,16.40
2022-08-27T00:21:26.539Z,17.00
2022-08-27T00:22:26.523Z,16.70
2022-08-27T00:23:26.511Z,10.20
2022-08-27T00:24:26.500Z,9.40
2022-08-27T00:25:26.491Z,6.10
2022-08-27T00:26:26.497Z,9.80
2022-08-27T00:27:26.466Z,8.80
2022-08-27T00:28:26.490Z,6.00
2022-08-27T00:29:26.446Z,4.80
2022-08-27T00:30:26.499Z,5.70
2022-08-27T00:31:27.544Z,5.20
2022-08-27T00:32:26.414Z,5.50
2022-08-27T00:33:26.408Z,5.30
2022-08-27T00:34:26.389Z,5.60
2022-08-27T00:35:26.385Z,5.40
2022-08-27T00:36:26.369Z,5.10
2022-08-27T00:37:26.376Z,6.20
2022-08-27T00:38:26.359Z,12.90
2022-08-27T00:39:26.389Z,4.60
2022-08-27T00:40:26.392Z,5.10
2022-08-27T00:41:35.789Z,5.50
2022-08-27T00:42:26.302Z,5.40
2022-08-27T00:43:26.291Z,5.40
2022-08-27T00:44:26.285Z,4.80
2022-08-27T00:45:26.374Z,5.60
2022-08-27T00:46:26.256Z,5.60
2022-08-27T00:47:26.393Z,5.90
2022-08-27T00:48:26.233Z,6.00
2022-08-27T00:49:26.249Z,5.60
2022-08-27T00:50:26.211Z,5.40
2022-08-27T00:51:26.202Z,5.50
2022-08-27T00:52:26.213Z,5.50
2022-08-27T00:53:26.179Z,6.00
2022-08-27T00:54:26.186Z,7.00
2022-08-27T00:55:26.162Z,6.70
2022-08-27T00:56:26.898Z,9.20
2022-08-27T00:57:26.133Z,7.00
2022-08-27T00:58:26.142Z,5.80
2022-08-27T00:59:26.114Z,4.90
2022-08-27T01:00:26.125Z,5.20
2022-08-27T01:01:26.111Z,5.00
2022-08-27T01:02:26.205Z,5.40
2022-08-27T01:03:26.091Z,5.10
2022-08-27T01:04:26.057Z,5.50
2022-08-27T01:05:26.044Z,6.30
2022-08-27T01:06:26.034Z,8.60
2022-08-27T01:08:50.407Z,10.10
2022-08-27T01:09:50.193Z,10.30
2022-08-27T01:10:50.144Z,7.80
2022-08-27T01:11:50.133Z,8.30
2022-08-27T01:12:53.350Z,7.30
2022-08-27T01:13:59.747Z,7.40
2022-08-27T01:14:51.107Z,8.00
2022-08-27T01:15:50.092Z,8.50
2022-08-27T01:16:50.079Z,6.10
2022-08-27T01:17:50.068Z,9.60
2022-08-27T01:18:52.749Z,7.50
2022-08-27T01:19:50.047Z,7.90
2022-08-27T01:20:50.036Z,7.60
2022-08-27T01:21:50.030Z,7.10
2022-08-27T01:22:50.016Z,5.90
2022-08-27T01:23:50.029Z,6.30
2022-08-27T01:24:49.991Z,5.70
2022-08-27T01:25:50.233Z,4.50
2022-08-27T01:26:49.966Z,6.20
2022-08-27T01:27:49.957Z,6.10
2022-08-27T01:28:52.933Z,6.10
2022-08-27T01:29:50.267Z,5.00
2022-08-27T01:30:49.927Z,8.70
2022-08-27T01:31:49.957Z,4.80
2022-08-27T01:32:49.906Z,4.30
2022-08-27T01:33:49.914Z,4.20
2022-08-27T01:34:49.877Z,4.40
2022-08-27T01:35:49.871Z,4.60
2022-08-27T01:36:49.896Z,4.80
2022-08-27T01:37:49.852Z,4.40
2022-08-27T01:38:49.832Z,4.80
2022-08-27T01:39:49.872Z,4.80
2022-08-27T01:40:49.953Z,4.90
2022-08-27T01:41:49.806Z,4.80
2022-08-27T01:42:49.813Z,4.80
2022-08-27T01:43:49.784Z,4.80
2022-08-27T01:44:49.784Z,4.70
2022-08-27T01:45:49.762Z,8.00
2022-08-27T01:46:49.812Z,6.60
2022-08-27T01:47:51.921Z,6.90
2022-08-27T01:48:49.746Z,6.50
2022-08-27T01:49:49.716Z,6.90
2022-08-27T01:50:49.701Z,6.60
2022-08-27T01:51:49.693Z,6.60
2022-08-27T01:52:49.702Z,6.20
2022-08-27T01:53:49.680Z,6.50
2022-08-27T01:54:49.655Z,6.50
2022-08-27T01:55:49.647Z,6.60
2022-08-27T01:56:49.635Z,6.40
2022-08-27T01:57:49.661Z,6.60
2022-08-27T01:58:49.616Z,6.30
2022-08-27T01:59:49.603Z,6.80
2022-08-27T02:00:56.011Z,6.70
2022-08-27T02:01:50.615Z,6.30
2022-08-27T02:02:49.586Z,6.60
2022-08-27T02:03:50.723Z,6.50
2022-08-27T02:04:49.546Z,6.60
2022-08-27T02:05:49.551Z,6.60
2022-08-27T02:06:49.529Z,6.40
2022-08-27T02:07:49.534Z,6.20
2022-08-27T02:08:49.505Z,6.30
2022-08-27T02:09:49.492Z,6.50
2022-08-27T02:10:49.482Z,6.20
2022-08-27T02:11:49.470Z,6.70
2022-08-27T02:12:49.476Z,6.80
2022-08-27T02:13:49.444Z,6.70
2022-08-27T02:14:49.909Z,6.70
2022-08-27T02:15:49.461Z,6.50
2022-08-27T02:16:52.435Z,7.00
2022-08-27T02:17:49.413Z,6.90
2022-08-27T02:18:49.514Z,7.10
2022-08-27T02:19:49.380Z,6.80
2022-08-27T02:20:49.953Z,6.70
2022-08-27T02:21:49.360Z,7.10
2022-08-27T02:22:49.348Z,6.60
2022-08-27T02:23:49.341Z,6.40
2022-08-27T02:24:49.350Z,6.50
2022-08-27T02:25:49.312Z,6.90
2022-08-27T02:26:49.302Z,6.70
2022-08-27T02:27:49.293Z,6.60
2022-08-27T02:28:49.329Z,6.80
2022-08-27T02:29:49.879Z,7.00
2022-08-27T02:30:49.255Z,6.70
2022-08-27T02:31:49.353Z,6.50
2022-08-27T02:32:49.238Z,6.60
2022-08-27T02:33:49.225Z,6.90
2022-08-27T02:34:49.229Z,7.20
2022-08-27T02:35:49.919Z,6.50
2022-08-27T02:36:49.190Z,6.80
2022-08-27T02:37:49.179Z,6.50
2022-08-27T02:38:49.198Z,6.60
2022-08-27T02:39:49.162Z,6.70
2022-08-27T02:40:49.159Z,6.90
2022-08-27T02:41:49.135Z,6.90
2022-08-27T02:42:49.123Z,6.70
2022-08-27T02:43:49.139Z,6.60
2022-08-27T02:44:49.101Z,6.60
2022-08-27T02:45:49.094Z,6.50
2022-08-27T02:46:51.921Z,6.30
2022-08-27T02:47:49.088Z,6.90
2022-08-27T02:48:49.059Z,7.20
2022-08-27T02:49:49.069Z,7.10
2022-08-27T02:50:49.071Z,6.30
2022-08-27T02:51:49.043Z,6.60
2022-08-27T02:52:49.016Z,6.80
2022-08-27T02:53:49.004Z,6.60
2022-08-27T02:54:56.198Z,6.50
2022-08-27T02:55:49.048Z,6.30
2022-08-27T02:56:49.004Z,6.70
2022-08-27T02:57:48.965Z,7.10
2022-08-27T02:58:49.075Z,6.60
2022-08-27T02:59:48.959Z,6.70
2022-08-27T03:00:48.982Z,6.70
2022-08-27T03:01:49.052Z,6.40
2022-08-27T03:02:48.944Z,6.50
2022-08-27T03:03:48.891Z,6.90
2022-08-27T03:04:48.901Z,6.70
2022-08-27T03:05:48.870Z,6.80
2022-08-27T03:06:48.860Z,6.70
2022-08-27T03:07:48.846Z,6.20
2022-08-27T03:08:52.387Z,6.50
2022-08-27T03:09:49.001Z,6.50
2022-08-27T03:10:48.814Z,6.40
2022-08-27T03:11:48.820Z,6.60
2022-08-27T03:12:48.789Z,6.60
2022-08-27T03:13:48.910Z,6.80
2022-08-27T03:14:48.764Z,6.30
2022-08-27T03:15:50.698Z,6.60
2022-08-27T03:16:48.747Z,6.30
2022-08-27T03:17:48.742Z,6.20
2022-08-27T03:18:48.726Z,6.30
2022-08-27T03:19:48.714Z,6.40
2022-08-27T03:20:48.736Z,6.40
2022-08-27T03:21:54.287Z,6.30
2022-08-27T03:22:49.678Z,6.50
2022-08-27T03:23:48.685Z,6.50
2022-08-27T03:24:48.659Z,6.20
2022-08-27T03:25:48.673Z,6.40
2022-08-27T03:26:52.697Z,6.60
2022-08-27T03:27:49.621Z,6.30
2022-08-27T03:28:48.615Z,6.80
2022-08-27T03:29:48.602Z,6.20
2022-08-27T03:30:48.680Z,6.70
2022-08-27T03:31:48.590Z,6.60
2022-08-27T03:32:48.571Z,6.10
2022-08-27T03:33:48.557Z,6.40
2022-08-27T03:34:48.551Z,6.20
2022-08-27T03:35:51.660Z,6.80
2022-08-27T03:36:48.534Z,6.10
2022-08-27T03:37:48.532Z,6.40
2022-08-27T03:38:48.503Z,6.80
2022-08-27T03:39:48.492Z,6.70
2022-08-27T03:40:48.507Z,6.50
2022-08-27T03:41:54.533Z,6.40
2022-08-27T03:42:49.459Z,6.60
2022-08-27T03:43:48.456Z,6.40
2022-08-27T03:44:48.437Z,6.90
2022-08-27T03:46:01.598Z,6.30
2022-08-27T03:46:49.457Z,6.30
2022-08-27T03:47:48.424Z,6.10
2022-08-27T03:48:48.393Z,6.20
2022-08-27T03:49:48.379Z,6.50
2022-08-27T03:50:48.389Z,6.10
2022-08-27T03:51:48.353Z,6.50
2022-08-27T03:52:48.353Z,6.80
2022-08-27T03:53:48.332Z,6.60
2022-08-27T03:54:48.340Z,6.10
2022-08-27T03:55:48.335Z,6.20
2022-08-27T03:56:48.306Z,6.10
2022-08-27T03:57:48.294Z,6.50
2022-08-27T03:58:48.285Z,6.30
2022-08-27T03:59:48.271Z,6.40
2022-08-27T04:00:48.292Z,6.70
2022-08-27T04:01:48.275Z,6.40
2022-08-27T04:02:48.529Z,6.20
2022-08-27T04:03:48.223Z,6.40
2022-08-27T04:04:48.332Z,6.30
2022-08-27T04:05:48.221Z,6.20
2022-08-27T04:06:48.194Z,6.40
2022-08-27T04:07:48.182Z,6.20
2022-08-27T04:08:48.177Z,6.10
2022-08-27T04:09:48.161Z,6.50
2022-08-27T04:10:48.197Z,6.30
2022-08-27T04:11:48.134Z,6.10
2022-08-27T04:12:48.130Z,6.50
2022-08-27T04:13:48.110Z,6.00
2022-08-27T04:14:48.105Z,6.10
2022-08-27T04:15:48.151Z,6.60
2022-08-27T04:16:48.096Z,6.30
2022-08-27T04:17:48.072Z,6.40
2022-08-27T04:18:48.066Z,6.60
2022-08-27T04:19:50.396Z,6.50
2022-08-27T04:20:48.040Z,6.50
2022-08-27T04:21:48.034Z,6.60
2022-08-27T04:22:48.021Z,6.30
2022-08-27T04:23:48.017Z,6.00
2022-08-27T04:24:47.996Z,6.00
2022-08-27T04:25:47.980Z,6.20
2022-08-27T04:26:47.974Z,6.20
2022-08-27T04:27:47.957Z,6.30
2022-08-27T04:28:49.173Z,6.20
2022-08-27T04:29:47.936Z,6.40
2022-08-27T04:30:48.023Z,6.30
2022-08-27T04:31:47.933Z,6.30
2022-08-27T04:32:47.999Z,5.70
2022-08-27T04:33:50.805Z,5.90
2022-08-27T04:34:47.884Z,5.90
2022-08-27T04:35:47.869Z,6.20
2022-08-27T04:36:49.989Z,6.10
2022-08-27T04:37:47.870Z,6.30
2022-08-27T04:38:47.853Z,6.50
2022-08-27T04:39:50.320Z,6.50
2022-08-27T04:40:47.834Z,6.30
2022-08-27T04:41:47.805Z,6.30
2022-08-27T04:42:47.815Z,6.50
2022-08-27T04:43:47.824Z,5.80
2022-08-27T04:44:47.774Z,5.80
2022-08-27T04:45:47.777Z,6.00
2022-08-27T04:46:49.254Z,6.50
2022-08-27T04:47:47.746Z,6.10
2022-08-27T04:48:47.727Z,6.00
2022-08-27T04:49:47.815Z,6.00
2022-08-27T04:50:47.718Z,6.00
2022-08-27T04:51:47.733Z,6.50
2022-08-27T04:52:47.683Z,6.30
2022-08-27T04:53:47.829Z,6.20
2022-08-27T04:54:47.679Z,6.30
2022-08-27T04:55:47.695Z,5.90
2022-08-27T04:56:47.638Z,5.80
2022-08-27T04:57:47.631Z,5.90
2022-08-27T04:58:47.616Z,6.00
2022-08-27T04:59:47.625Z,6.40
2022-08-27T05:00:47.594Z,5.90
2022-08-27T05:01:47.659Z,6.70
2022-08-27T05:02:47.571Z,6.70
2022-08-27T05:03:47.568Z,6.50
2022-08-27T05:04:47.611Z,7.10
2022-08-27T05:05:47.563Z,6.10
2022-08-27T05:06:47.542Z,6.30
2022-08-27T05:07:47.522Z,6.40
2022-08-27T05:08:47.622Z,6.60
2022-08-27T05:09:47.495Z,7.00
2022-08-27T05:10:47.483Z,6.60
2022-08-27T05:11:47.500Z,6.90
2022-08-27T05:12:49.289Z,6.70
2022-08-27T05:13:47.475Z,6.60
2022-08-27T05:14:47.451Z,6.60
2022-08-27T05:15:47.505Z,6.50
2022-08-27T05:16:47.416Z,7.10
2022-08-27T05:17:47.426Z,7.00
2022-08-27T05:18:48.643Z,6.50
2022-08-27T05:19:47.382Z,6.60
2022-08-27T05:20:47.372Z,6.60
2022-08-27T05:21:47.356Z,7.10
2022-08-27T05:22:47.372Z,6.90
2022-08-27T05:23:47.339Z,6.00
2022-08-27T05:24:50.341Z,6.40
2022-08-27T05:25:47.335Z,6.40
2022-08-27T05:26:47.303Z,6.90
2022-08-27T05:27:47.325Z,6.70
2022-08-27T05:28:47.286Z,7.00
2022-08-27T05:29:47.325Z,6.60
2022-08-27T05:30:49.274Z,6.40
2022-08-27T05:31:48.420Z,7.30
2022-08-27T05:32:47.254Z,7.30
2022-08-27T05:33:47.223Z,7.00
2022-08-27T05:34:47.224Z,7.00
2022-08-27T05:35:47.207Z,7.20
2022-08-27T05:36:48.707Z,7.20
2022-08-27T05:37:47.200Z,7.80
2022-08-27T05:38:47.172Z,7.70
2022-08-27T05:39:47.155Z,7.80
2022-08-27T05:40:47.149Z,7.00
2022-08-27T05:41:47.137Z,7.70
2022-08-27T05:42:50.166Z,7.40
2022-08-27T05:43:50.247Z,7.70
2022-08-27T05:44:47.378Z,7.30
2022-08-27T05:45:47.099Z,7.40
2022-08-27T05:46:47.089Z,7.20
2022-08-27T05:47:47.092Z,7.10
2022-08-27T05:48:47.061Z,7.10
2022-08-27T05:49:47.048Z,6.90
2022-08-27T05:50:47.038Z,6.90
2022-08-27T05:51:47.042Z,7.20
2022-08-27T05:52:47.016Z,7.50
2022-08-27T05:53:47.006Z,7.50
2022-08-27T05:54:46.996Z,7.30
2022-08-27T05:55:46.984Z,7.30
2022-08-27T05:56:46.975Z,7.40
2022-08-27T05:57:46.974Z,7.70
2022-08-27T05:58:46.952Z,7.10
2022-08-27T05:59:47.045Z,7.50
2022-08-27T06:00:46.934Z,7.20
2022-08-27T06:01:46.919Z,7.60
2022-08-27T06:02:46.976Z,7.60
2022-08-27T06:03:46.896Z,7.40
2022-08-27T06:04:46.950Z,7.20
2022-08-27T06:05:46.871Z,7.30
2022-08-27T06:06:46.864Z,7.70
2022-08-27T06:07:46.874Z,7.20
2022-08-27T06:08:46.844Z,7.10
2022-08-27T06:09:46.837Z,7.00
2022-08-27T06:10:46.821Z,7.20
2022-08-27T06:11:46.807Z,7.20
2022-08-27T06:12:46.817Z,7.70
2022-08-27T06:13:46.785Z,7.40
2022-08-27T06:14:46.785Z,7.00
2022-08-27T06:15:46.828Z,7.50
2022-08-27T06:16:46.775Z,7.30
2022-08-27T06:17:46.766Z,7.20
2022-08-27T06:18:46.759Z,6.90
2022-08-27T06:19:46.727Z,7.10
2022-08-27T06:20:46.714Z,7.20
2022-08-27T06:21:46.701Z,7.70
2022-08-27T06:22:49.784Z,7.40
2022-08-27T06:23:46.675Z,7.50
2022-08-27T06:24:46.671Z,7.10
2022-08-27T06:25:46.656Z,7.10
2022-08-27T06:26:46.712Z,7.10
2022-08-27T06:27:49.852Z,7.40
2022-08-27T06:28:46.627Z,6.90
2022-08-27T06:29:46.617Z,7.10
2022-08-27T06:30:46.637Z,6.80
2022-08-27T06:31:46.990Z,7.20
2022-08-27T06:32:46.579Z,7.00
2022-08-27T06:33:46.572Z,7.00
2022-08-27T06:34:46.563Z,7.10
2022-08-27T06:35:46.630Z,6.90
2022-08-27T06:36:46.545Z,7.20
2022-08-27T06:37:46.537Z,6.70
2022-08-27T06:38:46.527Z,7.00
2022-08-27T06:39:46.504Z,7.50
2022-08-27T06:40:46.566Z,7.10
2022-08-27T06:41:46.485Z,7.30
2022-08-27T06:42:46.490Z,7.70
2022-08-27T06:43:46.460Z,7.30
2022-08-27T06:44:46.451Z,7.30
2022-08-27T06:45:47.441Z,7.50
2022-08-27T06:46:46.438Z,7.90
2022-08-27T06:47:46.423Z,7.80
2022-08-27T06:48:46.802Z,7.40
2022-08-27T06:49:46.619Z,7.20
2022-08-27T06:50:46.392Z,7.40
2022-08-27T06:51:46.414Z,7.30
2022-08-27T06:52:46.612Z,7.10
2022-08-27T06:53:46.351Z,7.50
2022-08-27T06:54:46.369Z,7.20
2022-08-27T06:55:46.360Z,7.40
2022-08-27T06:56:46.327Z,7.40
2022-08-27T06:57:46.308Z,7.50
2022-08-27T06:58:46.302Z,7.00
2022-08-27T06:59:46.286Z,7.20
2022-08-27T07:00:48.979Z,7.10
2022-08-27T07:01:46.372Z,6.90
2022-08-27T07:02:46.346Z,7.10
2022-08-27T07:03:46.243Z,7.10
2022-08-27T07:04:46.241Z,7.00
2022-08-27T07:05:46.371Z,6.50
2022-08-27T07:06:46.212Z,6.80
2022-08-27T07:07:56.492Z,6.40
2022-08-27T07:08:53.323Z,6.50
2022-08-27T07:09:49.960Z,6.30
2022-08-27T07:10:46.186Z,6.60
2022-08-27T07:11:46.992Z,6.90
2022-08-27T07:12:46.162Z,7.30
2022-08-27T07:13:46.158Z,6.90
2022-08-27T07:14:46.128Z,7.20
2022-08-27T07:15:46.180Z,7.10
2022-08-27T07:16:46.101Z,7.50
2022-08-27T07:17:46.092Z,7.00
2022-08-27T07:18:46.098Z,6.90
2022-08-27T07:19:46.072Z,6.70
2022-08-27T07:20:46.057Z,6.90
2022-08-27T07:21:46.049Z,6.70
2022-08-27T07:22:46.118Z,7.10
2022-08-27T07:23:46.049Z,6.40
2022-08-27T07:24:46.043Z,6.80
2022-08-27T07:25:46.034Z,6.80
2022-08-27T07:26:45.995Z,6.90
2022-08-27T07:27:47.485Z,7.10
2022-08-27T07:28:46.394Z,7.20
2022-08-27T07:29:45.956Z,7.30
2022-08-27T07:30:46.059Z,7.00
2022-08-27T07:31:45.968Z,6.70
2022-08-27T07:32:45.930Z,7.20
2022-08-27T07:33:50.603Z,7.10
2022-08-27T07:34:46.906Z,6.70
2022-08-27T07:35:45.940Z,6.90
2022-08-27T07:36:45.882Z,6.40
2022-08-27T07:37:45.873Z,7.20
2022-08-27T07:38:46.215Z,7.20
2022-08-27T07:39:46.851Z,7.20
2022-08-27T07:40:45.858Z,7.40
2022-08-27T07:41:45.840Z,7.40
2022-08-27T07:42:45.815Z,7.60
2022-08-27T07:43:45.920Z,7.10
2022-08-27T07:44:45.816Z,7.50
2022-08-27T07:45:45.852Z,7.00
2022-08-27T07:46:48.197Z,7.20
2022-08-27T07:47:45.760Z,7.20
2022-08-27T07:48:45.767Z,7.20
2022-08-27T07:49:45.744Z,7.50
2022-08-27T07:50:45.730Z,7.30
2022-08-27T07:51:45.724Z,7.60
2022-08-27T07:52:45.705Z,7.90
2022-08-27T07:53:45.723Z,7.50
2022-08-27T07:54:45.779Z,7.60
2022-08-27T07:55:45.669Z,7.50
2022-08-27T07:56:55.314Z,8.20
2022-08-27T07:57:46.675Z,7.60
2022-08-27T07:58:46.821Z,7.90
2022-08-27T07:59:45.631Z,7.80
2022-08-27T08:00:45.618Z,7.60
2022-08-27T08:01:45.672Z,7.10
2022-08-27T08:02:45.761Z,7.30
2022-08-27T08:03:45.592Z,7.40
2022-08-27T08:04:45.570Z,7.40
2022-08-27T08:05:45.564Z,7.50
2022-08-27T08:06:55.205Z,7.30
2022-08-27T08:07:45.541Z,7.50
2022-08-27T08:08:56.546Z,7.20
2022-08-27T08:09:45.760Z,7.60
2022-08-27T08:10:45.507Z,7.20
2022-08-27T08:11:45.502Z,7.20
2022-08-27T08:12:45.502Z,7.60
2022-08-27T08:13:46.463Z,7.20
2022-08-27T08:14:45.458Z,7.30
2022-08-27T08:15:46.469Z,7.30
2022-08-27T08:16:45.524Z,6.90
2022-08-27T08:17:48.348Z,7.10
2022-08-27T08:18:45.419Z,7.60
2022-08-27T08:20:02.517Z,7.50
2022-08-27T08:20:58.061Z,7.70
2022-08-27T08:21:46.400Z,7.40
2022-08-27T08:22:45.380Z,7.80
2022-08-27T08:23:45.365Z,7.60
2022-08-27T08:24:45.351Z,7.50
2022-08-27T08:25:45.340Z,7.60
2022-08-27T08:26:45.341Z,7.10
2022-08-27T08:27:45.319Z,7.20
2022-08-27T08:28:45.303Z,7.00
2022-08-27T08:29:45.300Z,6.80
2022-08-27T08:30:45.364Z,7.00
2022-08-27T08:31:45.287Z,7.00
2022-08-27T08:32:46.268Z,6.70
2022-08-27T08:33:45.248Z,7.10
2022-08-27T08:34:45.236Z,6.80
2022-08-27T08:35:45.225Z,7.50
2022-08-27T08:36:46.278Z,7.20
2022-08-27T08:37:46.198Z,7.80
2022-08-27T08:38:45.190Z,7.60
2022-08-27T08:39:45.180Z,8.10
2022-08-27T08:40:45.168Z,7.90
2022-08-27T08:41:45.201Z,8.00
2022-08-27T08:42:50.541Z,8.40
2022-08-27T08:43:46.137Z,8.10
2022-08-27T08:44:45.120Z,8.00
2022-08-27T08:45:45.172Z,8.00
2022-08-27T08:46:45.122Z,7.90
2022-08-27T08:47:45.310Z,7.80
2022-08-27T08:48:45.079Z,8.10
2022-08-27T08:49:45.068Z,7.70
2022-08-27T08:50:45.053Z,7.50
2022-08-27T08:51:45.114Z,8.30
2022-08-27T08:52:45.056Z,8.40
2022-08-27T08:53:45.017Z,8.20
2022-08-27T08:54:45.008Z,8.50
2022-08-27T08:55:45.001Z,8.10
2022-08-27T08:56:44.993Z,8.20
2022-08-27T08:57:44.989Z,8.60
2022-08-27T08:58:45.530Z,9.20
2022-08-27T08:59:44.953Z,8.80
2022-08-27T09:00:44.947Z,8.50
2022-08-27T09:01:44.980Z,8.20
2022-08-27T09:02:45.099Z,8.10
2022-08-27T09:03:44.926Z,7.60
2022-08-27T09:04:44.934Z,7.80
2022-08-27T09:05:44.887Z,7.60
2022-08-27T09:06:44.881Z,8.00
2022-08-27T09:07:44.884Z,8.10
2022-08-27T09:08:45.194Z,8.00
2022-08-27T09:09:44.846Z,7.90
2022-08-27T09:10:44.850Z,8.30
2022-08-27T09:11:44.851Z,8.50
2022-08-27T09:12:44.835Z,8.00
2022-08-27T09:13:44.885Z,8.10
2022-08-27T09:14:46.122Z,8.20
2022-08-27T09:15:44.787Z,8.10
2022-08-27T09:16:44.835Z,8.00
2022-08-27T09:17:44.783Z,8.60
2022-08-27T09:18:44.755Z,8.60
2022-08-27T09:19:45.499Z,8.40
2022-08-27T09:20:44.726Z,8.10
2022-08-27T09:21:45.078Z,8.20
2022-08-27T09:22:44.700Z,8.00
2022-08-27T09:23:44.693Z,8.00
2022-08-27T09:24:44.678Z,8.50
2022-08-27T09:25:44.676Z,8.10
2022-08-27T09:26:44.674Z,7.60
2022-08-27T09:27:44.661Z,8.10
2022-08-27T09:28:44.682Z,8.00
2022-08-27T09:29:44.636Z,7.80
2022-08-27T09:30:44.704Z,7.90
2022-08-27T09:31:44.845Z,7.50
2022-08-27T09:32:44.606Z,8.10
2022-08-27T09:33:56.323Z,8.20
2022-08-27T09:34:46.548Z,8.00
2022-08-27T09:35:44.637Z,8.20
2022-08-27T09:36:44.642Z,8.00
2022-08-27T09:37:44.558Z,7.80
2022-08-27T09:38:44.530Z,8.10
2022-08-27T09:39:45.516Z,8.30
2022-08-27T09:40:44.568Z,8.50
2022-08-27T09:41:44.577Z,8.00
2022-08-27T09:42:44.500Z,8.50
2022-08-27T09:43:44.654Z,8.40
2022-08-27T09:44:44.725Z,8.30
2022-08-27T09:45:45.123Z,8.50
2022-08-27T09:46:44.443Z,8.50
2022-08-27T09:47:44.429Z,8.40
2022-08-27T09:48:44.427Z,8.60
2022-08-27T09:49:44.411Z,8.10
2022-08-27T09:50:44.430Z,8.10
2022-08-27T09:51:44.490Z,8.40
2022-08-27T09:52:44.374Z,8.40
2022-08-27T09:53:44.363Z,8.70
2022-08-27T09:54:44.356Z,8.40
2022-08-27T09:55:47.292Z,8.10
2022-08-27T09:56:44.333Z,8.60
2022-08-27T09:57:44.324Z,8.40
2022-08-27T09:58:44.307Z,8.20
2022-08-27T09:59:44.301Z,8.40
2022-08-27T10:00:51.045Z,8.30
2022-08-27T10:01:44.283Z,8.40
2022-08-27T10:02:44.272Z,8.70
2022-08-27T10:03:44.317Z,8.30
2022-08-27T10:04:50.300Z,8.40
2022-08-27T10:05:45.237Z,8.40
2022-08-27T10:06:44.269Z,8.00
2022-08-27T10:07:44.211Z,8.50
2022-08-27T10:08:44.320Z,8.20
2022-08-27T10:09:44.211Z,8.20
2022-08-27T10:10:44.211Z,7.70
2022-08-27T10:11:44.169Z,8.00
2022-08-27T10:12:44.158Z,7.90
2022-08-27T10:13:44.169Z,7.70
2022-08-27T10:14:44.155Z,7.90
2022-08-27T10:15:47.753Z,8.00
2022-08-27T10:16:45.191Z,7.80
2022-08-27T10:17:44.106Z,8.30
2022-08-27T10:18:44.108Z,8.60
2022-08-27T10:19:44.082Z,8.70
2022-08-27T10:20:44.085Z,8.50
2022-08-27T10:21:44.573Z,8.10
2022-08-27T10:22:44.065Z,8.40
2022-08-27T10:23:44.037Z,8.30
2022-08-27T10:24:44.026Z,8.60
2022-08-27T10:25:45.017Z,8.50
2022-08-27T10:26:44.006Z,8.00
2022-08-27T10:27:44.141Z,8.30
2022-08-27T10:28:44.234Z,8.60
2022-08-27T10:29:43.973Z,8.30
2022-08-27T10:30:43.960Z,8.20
2022-08-27T10:31:46.007Z,8.10
2022-08-27T10:32:43.942Z,8.80
2022-08-27T10:33:43.931Z,8.50
2022-08-27T10:34:43.918Z,8.10
2022-08-27T10:35:48.104Z,8.10
2022-08-27T10:36:44.895Z,7.60
2022-08-27T10:37:43.889Z,7.70
2022-08-27T10:38:44.997Z,7.70
2022-08-27T10:39:43.864Z,7.50
2022-08-27T10:40:45.516Z,7.80
2022-08-27T10:41:44.000Z,8.20
2022-08-27T10:42:44.595Z,8.30
2022-08-27T10:43:43.831Z,8.10
2022-08-27T10:44:43.822Z,7.90
2022-08-27T10:45:43.869Z,8.20
2022-08-27T10:46:50.561Z,7.90
2022-08-27T10:47:43.831Z,8.20
2022-08-27T10:48:43.764Z,7.90
2022-08-27T10:49:43.757Z,7.80
2022-08-27T10:50:43.764Z,7.70
2022-08-27T10:51:43.730Z,7.50
2022-08-27T10:52:43.723Z,7.60
2022-08-27T10:53:43.789Z,7.30
2022-08-27T10:54:43.703Z,7.70
2022-08-27T10:55:44.609Z,8.00
2022-08-27T10:56:43.682Z,7.50
2022-08-27T10:57:55.089Z,7.70
2022-08-27T10:58:44.656Z,7.80
2022-08-27T10:59:47.190Z,7.70
2022-08-27T11:00:43.682Z,7.20
2022-08-27T11:01:43.801Z,7.40
2022-08-27T11:02:43.614Z,7.50
2022-08-27T11:03:43.621Z,7.10
2022-08-27T11:04:43.586Z,7.50
2022-08-27T11:05:43.586Z,7.60
2022-08-27T11:06:43.570Z,8.10
2022-08-27T11:07:43.569Z,8.10
2022-08-27T11:08:43.656Z,8.00
2022-08-27T11:09:43.534Z,7.90
2022-08-27T11:10:43.571Z,7.80
2022-08-27T11:12:13.802Z,8.00
2022-08-27T11:12:44.516Z,8.20
2022-08-27T11:13:43.513Z,7.90
2022-08-27T11:14:43.714Z,7.90
2022-08-27T11:15:43.498Z,8.30
2022-08-27T11:16:45.645Z,8.00
2022-08-27T11:17:43.495Z,8.60
2022-08-27T11:18:43.518Z,8.40
2022-08-27T11:19:43.633Z,8.00
2022-08-27T11:20:43.417Z,8.20
2022-08-27T11:21:43.404Z,7.60
2022-08-27T11:22:43.399Z,7.70
2022-08-27T11:23:43.385Z,7.60
2022-08-27T11:24:43.405Z,8.10
2022-08-27T11:25:43.451Z,8.40
2022-08-27T11:26:43.350Z,8.40
2022-08-27T11:27:43.346Z,8.70
2022-08-27T11:28:43.330Z,9.10
2022-08-27T11:29:43.337Z,8.50
2022-08-27T11:30:44.093Z,8.60
2022-08-27T11:31:43.755Z,8.40
2022-08-27T11:32:43.285Z,9.00
2022-08-27T11:33:46.137Z,8.60
2022-08-27T11:34:43.263Z,8.60
2022-08-27T11:35:43.255Z,9.00
2022-08-27T11:37:04.237Z,8.60
2022-08-27T11:37:43.237Z,8.60
2022-08-27T11:38:43.234Z,9.20
2022-08-27T11:39:43.231Z,8.40
2022-08-27T11:40:43.326Z,8.40
2022-08-27T11:41:44.735Z,8.80
2022-08-27T11:42:43.627Z,8.90
2022-08-27T11:43:43.170Z,8.30
2022-08-27T11:44:44.763Z,8.80
2022-08-27T11:45:47.856Z,8.90
2022-08-27T11:46:44.167Z,9.00
2022-08-27T11:47:43.122Z,8.50
2022-08-27T11:48:43.349Z,8.10
2022-08-27T11:49:43.127Z,8.70
2022-08-27T11:50:43.092Z,8.40
2022-08-27T11:51:43.076Z,8.60
2022-08-27T11:52:43.076Z,8.00
2022-08-27T11:53:52.260Z,8.20
2022-08-27T11:54:44.134Z,9.00
2022-08-27T11:55:43.117Z,8.90
2022-08-27T11:56:43.057Z,9.70
2022-08-27T11:57:43.547Z,9.20
2022-08-27T11:58:53.053Z,10.80
2022-08-27T11:59:44.020Z,9.50
2022-08-27T12:00:43.032Z,9.40
2022-08-27T12:01:42.987Z,9.30
2022-08-27T12:02:43.009Z,8.40
2022-08-27T12:03:44.709Z,9.20
2022-08-27T12:04:43.031Z,10.60
2022-08-27T12:05:42.996Z,9.40
2022-08-27T12:06:42.941Z,8.80
2022-08-27T12:07:42.999Z,9.00
2022-08-27T12:08:43.549Z,9.60
2022-08-27T12:09:42.909Z,10.40
2022-08-27T12:10:43.562Z,8.70
2022-08-27T12:11:42.915Z,9.60
2022-08-27T12:12:43.723Z,8.60
2022-08-27T12:13:42.931Z,11.80
2022-08-27T12:14:43.620Z,9.70
2022-08-27T12:15:42.925Z,10.10
2022-08-27T12:16:43.814Z,8.90
2022-08-27T12:17:42.857Z,12.60
2022-08-27T12:18:42.900Z,9.50
2022-08-27T12:19:42.797Z,9.20
2022-08-27T12:20:44.148Z,8.80
2022-08-27T12:21:43.632Z,11.20
2022-08-27T12:22:43.563Z,8.80
2022-08-27T12:23:42.767Z,11.40
2022-08-27T12:24:42.877Z,8.90
2022-08-27T12:25:43.163Z,9.40
2022-08-27T12:26:42.827Z,9.00
2022-08-27T12:27:42.896Z,8.80
2022-08-27T12:28:42.784Z,10.10
2022-08-27T12:29:44.001Z,9.60
2022-08-27T12:31:10.184Z,9.50
2022-08-27T12:31:59.632Z,9.50
2022-08-27T12:33:06.582Z,9.50
2022-08-27T12:33:48.084Z,10.00
2022-08-27T12:34:49.677Z,15.60
2022-08-27T12:35:45.737Z,8.70
2022-08-27T12:36:42.711Z,11.00
2022-08-27T12:37:46.181Z,10.00
2022-08-27T12:38:50.715Z,15.00
2022-08-27T12:40:54.243Z,12.60
2022-08-27T12:41:53.136Z,9.50
2022-08-27T12:42:53.128Z,7.90
2022-08-27T12:43:53.119Z,8.40
2022-08-27T12:44:53.129Z,8.10
2022-08-27T12:45:53.102Z,8.30
2022-08-27T12:46:53.155Z,8.30
2022-08-27T12:47:54.050Z,8.60
2022-08-27T12:48:53.067Z,8.60
2022-08-27T12:49:55.794Z,8.00
2022-08-27T12:50:53.051Z,7.50
2022-08-27T12:51:53.061Z,7.30
2022-08-27T12:52:53.029Z,7.40
2022-08-27T12:53:54.001Z,8.30
2022-08-27T12:54:53.035Z,8.00
2022-08-27T12:55:53.009Z,7.80
2022-08-27T12:56:52.980Z,8.60
2022-08-27T12:57:52.971Z,8.30
2022-08-27T12:58:52.965Z,8.40
2022-08-27T12:59:52.982Z,8.30
2022-08-27T13:00:53.011Z,8.50
2022-08-27T13:01:52.986Z,8.20
2022-08-27T13:02:52.919Z,8.50
2022-08-27T13:03:52.944Z,7.20
2022-08-27T13:04:52.900Z,7.90
2022-08-27T13:05:52.881Z,7.50
2022-08-27T13:06:52.871Z,7.70
2022-08-27T13:07:52.865Z,8.20
2022-08-27T13:08:52.869Z,8.40
2022-08-27T13:09:57.252Z,7.90
2022-08-27T13:10:52.998Z,8.00
2022-08-27T13:11:52.820Z,7.80
2022-08-27T13:12:52.825Z,7.90
2022-08-27T13:13:52.825Z,7.90
2022-08-27T13:14:56.980Z,8.00
2022-08-27T13:15:52.917Z,7.90
2022-08-27T13:16:52.763Z,7.70
2022-08-27T13:17:52.767Z,8.00
2022-08-27T13:18:54.899Z,7.80
2022-08-27T13:19:52.730Z,7.70